createdAt,value
2018-08-23T00:01:54.487Z,47.85
2018-08-23T00:04:25.500Z,47.93
2018-08-23T00:07:00.456Z,47.08
2018-08-23T00:09:35.713Z,48.59
2018-08-23T00:12:06.574Z,47.81
2018-08-23T00:14:37.505Z,47.99
2018-08-23T00:17:08.592Z,49.10
2018-08-23T00:19:39.499Z,48.30
2018-08-23T00:22:14.374Z,49.22
2018-08-23T00:24:45.386Z,49.09
2018-08-23T00:27:20.352Z,49.04
2018-08-23T00:29:51.633Z,49.82
2018-08-23T00:32:22.501Z,50.13
2018-08-23T00:34:53.730Z,50.18
2018-08-23T00:37:24.557Z,50.62
2018-08-23T00:39:57.329Z,49.46
2018-08-23T00:42:28.386Z,50.35
2018-08-23T00:47:47.435Z,50.01
2018-08-23T00:50:54.506Z,49.96
2018-08-23T00:53:25.607Z,50.77
2018-08-23T00:56:19.778Z,49.62
2018-08-23T00:59:08.388Z,50.08
2018-08-23T01:01:39.502Z,50.38
2018-08-23T01:04:10.489Z,49.57
2018-08-23T01:06:44.708Z,49.92
2018-08-23T01:09:15.594Z,50.11
2018-08-23T01:11:48.412Z,50.09
2018-08-23T01:14:19.714Z,51.13
2018-08-23T01:17:17.289Z,49.90
2018-08-23T01:19:58.074Z,51.09
2018-08-23T01:22:29.395Z,51.71
2018-08-23T01:25:02.525Z,51.23
2018-08-23T01:27:38.657Z,51.85
2018-08-23T01:30:09.593Z,52.50
2018-08-23T01:32:40.493Z,52.40
2018-08-23T01:35:12.520Z,52.81
2018-08-23T01:37:43.778Z,52.51
2018-08-23T01:40:14.541Z,52.66
2018-08-23T01:42:45.513Z,53.24
2018-08-23T01:45:16.501Z,52.91
2018-08-23T01:47:57.369Z,53.50
2018-08-23T01:50:28.489Z,52.93
2018-08-23T01:52:59.505Z,53.26
2018-08-23T01:55:30.461Z,53.31
2018-08-23T01:58:01.482Z,53.05
2018-08-23T02:00:34.600Z,54.41
2018-08-23T02:03:05.538Z,54.53
2018-08-23T02:05:38.404Z,53.84
2018-08-23T02:08:09.490Z,54.77
2018-08-23T02:10:40.477Z,54.64
2018-08-23T02:13:16.527Z,54.91
2018-08-23T02:15:51.592Z,54.32
2018-08-23T02:18:22.539Z,55.09
2018-08-23T02:20:57.335Z,55.07
2018-08-23T02:23:28.385Z,55.32
2018-08-23T02:25:59.481Z,54.59
2018-08-23T02:28:30.485Z,55.49
2018-08-23T02:31:01.488Z,55.12
2018-08-23T02:33:32.526Z,55.51
2018-08-23T02:36:23.622Z,55.30
2018-08-23T02:39:05.543Z,55.73
2018-08-23T02:41:36.518Z,55.42
2018-08-23T02:44:07.721Z,55.05
2018-08-23T02:46:38.553Z,55.46
2018-08-23T02:49:09.482Z,56.75
2018-08-23T02:51:45.758Z,56.31
2018-08-23T02:54:16.553Z,56.20
2018-08-23T02:56:51.370Z,56.61
2018-08-23T02:59:22.371Z,56.64
2018-08-23T03:01:53.384Z,57.28
2018-08-23T03:04:25.498Z,57.75
2018-08-23T03:06:58.855Z,57.56
2018-08-23T03:09:35.793Z,57.02
2018-08-23T03:12:12.870Z,57.03
2018-08-23T03:14:43.652Z,57.77
2018-08-23T03:17:26.233Z,56.89
2018-08-23T03:20:10.608Z,57.39
2018-08-23T03:22:42.319Z,57.93
2018-08-23T03:25:14.430Z,57.51
2018-08-23T03:27:45.451Z,57.90
2018-08-23T03:33:42.583Z,58.48
2018-08-23T03:36:13.484Z,58.67
2018-08-23T03:38:45.355Z,58.50
2018-08-23T03:41:16.358Z,58.32
2018-08-23T03:43:47.377Z,58.00
2018-08-23T03:46:18.463Z,57.99
2018-08-23T03:48:59.643Z,57.76
2018-08-23T03:54:13.488Z,58.64
2018-08-23T03:59:42.422Z,58.44
2018-08-23T04:02:14.457Z,58.66
2018-08-23T04:04:47.770Z,59.51
2018-08-23T04:07:19.206Z,58.29
2018-08-23T04:09:50.363Z,59.14
2018-08-23T04:12:21.412Z,58.94
2018-08-23T04:14:52.501Z,59.88
2018-08-23T04:17:23.516Z,59.74
2018-08-23T04:19:54.483Z,59.47
2018-08-23T04:22:25.491Z,59.48
2018-08-23T04:24:57.429Z,59.81
2018-08-23T04:27:28.506Z,59.62
2018-08-23T04:29:59.538Z,60.00
2018-08-23T04:32:35.776Z,59.82
2018-08-23T04:35:14.656Z,59.33
2018-08-23T04:37:45.510Z,59.31
2018-08-23T04:40:16.496Z,59.82
2018-08-23T04:42:47.495Z,59.51
2018-08-23T04:45:34.205Z,60.42
2018-08-23T04:48:07.306Z,59.92
2018-08-23T04:50:40.394Z,59.86
2018-08-23T04:53:11.502Z,60.83
2018-08-23T04:55:42.489Z,60.30
2018-08-23T04:58:13.498Z,59.98
2018-08-23T05:00:44.493Z,59.67
2018-08-23T05:03:15.498Z,60.90
2018-08-23T05:05:46.477Z,60.92
2018-08-23T05:11:01.563Z,61.38
2018-08-23T05:13:32.459Z,60.97
2018-08-23T05:16:03.503Z,60.52
2018-08-23T05:18:34.539Z,60.98
2018-08-23T05:21:05.521Z,61.36
2018-08-23T05:23:36.500Z,60.27
2018-08-23T05:26:11.581Z,61.68
2018-08-23T05:31:32.210Z,60.12
2018-08-23T05:34:07.712Z,59.16
2018-08-23T05:36:38.683Z,60.08
2018-08-23T05:39:10.630Z,59.28
2018-08-23T05:41:41.547Z,59.78
2018-08-23T05:44:17.625Z,59.27
2018-08-23T05:46:53.549Z,59.37
2018-08-23T05:50:46.377Z,59.56
2018-08-23T05:53:18.492Z,59.80
2018-08-23T05:55:52.835Z,59.84
2018-08-23T05:58:26.836Z,59.64
2018-08-23T06:00:57.709Z,59.28
2018-08-23T06:03:28.543Z,58.83
2018-08-23T06:05:59.561Z,59.08
2018-08-23T06:08:30.469Z,58.47
2018-08-23T06:11:10.424Z,58.85
2018-08-23T06:13:41.600Z,58.79
2018-08-23T06:16:12.557Z,58.89
2018-08-23T06:18:43.501Z,57.60
2018-08-23T06:21:14.466Z,58.06
2018-08-23T06:24:02.326Z,57.70
2018-08-23T06:29:23.767Z,56.96
2018-08-23T06:32:03.036Z,57.10
2018-08-23T06:34:45.548Z,56.87
2018-08-23T06:37:17.446Z,56.58
2018-08-23T06:39:48.730Z,56.27
2018-08-23T06:42:19.691Z,55.03
2018-08-23T06:44:54.608Z,55.49
2018-08-23T06:47:26.858Z,55.08
2018-08-23T06:49:58.023Z,55.98
2018-08-23T06:52:40.219Z,55.33
2018-08-23T06:55:20.833Z,55.21
2018-08-23T06:57:55.518Z,53.94
2018-08-23T07:00:27.279Z,53.66
2018-08-23T07:02:57.935Z,54.47
2018-08-23T07:05:28.899Z,53.52
2018-08-23T07:07:59.580Z,54.42
2018-08-23T07:10:30.550Z,53.86
2018-08-23T07:13:01.550Z,53.75
2018-08-23T07:15:32.534Z,52.79
2018-08-23T07:18:07.293Z,54.05
2018-08-23T07:20:38.349Z,52.41
2018-08-23T07:23:30.502Z,52.01
2018-08-23T07:26:01.499Z,52.61
2018-08-23T07:31:15.500Z,50.90
2018-08-23T07:33:51.800Z,50.59
2018-08-23T07:36:30.433Z,50.84
2018-08-23T07:39:01.470Z,51.77
2018-08-23T07:41:32.445Z,50.69
2018-08-23T07:44:03.574Z,50.23
2018-08-23T07:46:34.502Z,50.77
2018-08-23T07:49:05.497Z,49.77
2018-08-23T07:51:36.474Z,49.52
2018-08-23T07:54:11.385Z,47.98
2018-08-23T07:56:42.501Z,47.54
2018-08-23T07:59:14.313Z,47.98
2018-08-23T08:01:45.610Z,47.66
2018-08-23T08:04:16.533Z,48.04
2018-08-23T08:06:47.489Z,48.83
2018-08-23T08:09:26.550Z,48.10
2018-08-23T08:12:01.766Z,47.28
2018-08-23T08:14:36.724Z,47.33
2018-08-23T08:17:17.281Z,47.72
2018-08-23T08:19:52.668Z,46.26
2018-08-23T08:22:23.558Z,47.83
2018-08-23T08:25:04.622Z,46.60
2018-08-23T08:27:35.495Z,46.62
2018-08-23T08:30:08.477Z,44.85
2018-08-23T08:32:39.476Z,44.17
2018-08-23T08:35:17.845Z,43.99
2018-08-23T08:37:49.987Z,43.08
2018-08-23T08:40:27.307Z,43.18
2018-08-23T08:42:58.382Z,42.96
2018-08-23T08:45:29.504Z,41.36
2018-08-23T08:48:29.590Z,41.10
2018-08-23T08:51:25.517Z,40.33
2018-08-23T08:53:57.309Z,39.31
2018-08-23T08:56:37.371Z,39.52
2018-08-23T08:59:08.353Z,41.45
2018-08-23T09:01:39.458Z,40.04
2018-08-23T09:04:10.528Z,38.09
2018-08-23T09:06:45.770Z,37.11
2018-08-23T09:09:34.239Z,39.20
2018-08-23T09:12:07.473Z,39.58
2018-08-23T09:14:39.622Z,39.95
2018-08-23T09:17:36.527Z,39.54
2018-08-23T09:20:11.459Z,39.15
2018-08-23T09:22:47.369Z,38.21
2018-08-23T09:25:33.387Z,37.69
2018-08-23T09:28:04.397Z,37.97
2018-08-23T09:30:35.465Z,36.69
2018-08-23T09:35:53.510Z,36.85
2018-08-23T09:38:24.538Z,37.21
2018-08-23T09:40:55.526Z,37.36
2018-08-23T09:43:26.485Z,36.68
2018-08-23T09:45:57.619Z,37.76
2018-08-23T09:48:28.517Z,36.71
2018-08-23T09:50:59.549Z,36.52
2018-08-23T09:53:30.489Z,36.34
2018-08-23T09:56:01.506Z,34.64
2018-08-23T09:58:37.534Z,34.28
2018-08-23T10:01:13.772Z,33.78
2018-08-23T10:03:49.657Z,34.44
2018-08-23T10:09:19.664Z,34.17
2018-08-23T10:12:54.953Z,34.00
2018-08-23T10:15:31.244Z,33.28
2018-08-23T10:18:07.220Z,32.61
2018-08-23T10:20:47.016Z,35.14
2018-08-23T10:23:24.021Z,34.81
2018-08-23T10:25:57.413Z,34.78
2018-08-23T10:28:33.288Z,34.65
2018-08-23T10:31:04.377Z,33.49
2018-08-23T10:33:35.400Z,31.73
2018-08-23T10:36:06.510Z,32.20
2018-08-23T10:38:38.017Z,32.06
2018-08-23T10:41:09.301Z,32.08
2018-08-23T10:43:46.450Z,31.60
2018-08-23T10:46:17.477Z,31.37
2018-08-23T10:48:48.481Z,30.96
2018-08-23T10:51:19.502Z,32.59
2018-08-23T10:53:50.531Z,31.47
2018-08-23T10:56:25.289Z,32.58
2018-08-23T10:58:56.623Z,33.48
2018-08-23T11:01:28.255Z,34.19
2018-08-23T11:04:02.350Z,34.23
2018-08-23T11:06:33.364Z,35.01
2018-08-23T11:09:09.649Z,34.67
2018-08-23T11:11:40.612Z,35.20
2018-08-23T11:14:17.032Z,32.92
2018-08-23T11:16:53.935Z,31.87
2018-08-23T11:19:29.720Z,30.27
2018-08-23T11:22:00.569Z,29.24
2018-08-23T11:24:31.484Z,29.60
2018-08-23T11:27:02.500Z,29.91
2018-08-23T11:29:33.563Z,28.73
2018-08-23T11:32:04.480Z,27.20
2018-08-23T11:34:35.549Z,27.94
2018-08-23T11:37:06.626Z,27.91
2018-08-23T11:39:37.489Z,26.80
2018-08-23T11:42:08.480Z,28.00
2018-08-23T11:44:39.416Z,26.53
2018-08-23T11:47:10.508Z,26.43
2018-08-23T11:49:41.475Z,28.68
2018-08-23T11:52:12.517Z,26.26
2018-08-23T11:54:43.481Z,25.93
2018-08-23T11:57:14.513Z,25.93
2018-08-23T11:59:45.484Z,25.33
2018-08-23T12:02:16.445Z,25.21
2018-08-23T12:04:47.504Z,24.21
2018-08-23T12:07:18.480Z,25.62
2018-08-23T12:09:49.568Z,24.93
2018-08-23T12:12:20.519Z,25.31
2018-08-23T12:14:55.606Z,25.43
2018-08-23T12:17:26.488Z,27.10
2018-08-23T12:19:57.466Z,26.75
2018-08-23T12:22:34.292Z,25.25
2018-08-23T12:25:04.468Z,25.31
2018-08-23T12:27:35.685Z,25.36
2018-08-23T12:30:07.641Z,25.00
2018-08-23T12:32:38.506Z,25.49
2018-08-23T12:35:09.477Z,25.30
2018-08-23T12:37:45.632Z,24.15
2018-08-23T12:40:21.702Z,24.54
2018-08-23T12:42:53.312Z,24.59
2018-08-23T12:45:24.506Z,24.18
2018-08-23T12:47:55.500Z,24.14
2018-08-23T12:50:26.493Z,23.52
2018-08-23T12:52:57.521Z,25.29
2018-08-23T12:55:28.489Z,23.47
2018-08-23T12:57:59.504Z,23.22
2018-08-23T13:00:30.534Z,22.31
2018-08-23T13:03:01.560Z,21.48
2018-08-23T13:05:32.460Z,21.47
2018-08-23T13:08:05.686Z,20.94
2018-08-23T13:10:37.389Z,20.36
2018-08-23T13:13:08.495Z,20.84
2018-08-23T13:15:39.520Z,20.65
2018-08-23T13:18:10.493Z,20.20
2018-08-23T13:20:41.557Z,20.25
2018-08-23T13:23:12.558Z,20.49
2018-08-23T13:25:48.489Z,19.91
2018-08-23T13:28:19.523Z,20.51
2018-08-23T13:30:50.591Z,21.68
2018-08-23T13:33:21.559Z,21.62
2018-08-23T13:35:52.489Z,22.21
2018-08-23T13:38:23.549Z,22.92
2018-08-23T13:40:54.488Z,21.86
2018-08-23T13:43:25.508Z,22.26
2018-08-23T13:45:56.553Z,22.68
2018-08-23T13:48:27.575Z,21.48
2018-08-23T13:50:58.533Z,22.62
2018-08-23T13:56:13.642Z,20.10
2018-08-23T13:58:44.553Z,19.72
2018-08-23T14:01:16.397Z,20.25
2018-08-23T14:03:47.558Z,21.13
2018-08-23T14:06:18.551Z,21.54
2018-08-23T14:08:49.501Z,21.00
2018-08-23T14:11:20.581Z,20.53
2018-08-23T14:13:51.485Z,21.40
2018-08-23T14:16:22.503Z,21.29
2018-08-23T14:18:53.646Z,21.47
2018-08-23T14:21:24.513Z,21.59
2018-08-23T14:23:55.493Z,22.50
2018-08-23T14:26:26.478Z,22.25
2018-08-23T14:28:57.495Z,21.51
2018-08-23T14:31:28.502Z,22.44
2018-08-23T14:33:59.542Z,22.67
2018-08-23T14:36:30.512Z,22.29
2018-08-23T14:39:01.508Z,23.67
2018-08-23T14:41:32.523Z,23.19
2018-08-23T14:44:03.521Z,22.64
2018-08-23T14:47:39.423Z,23.84
2018-08-23T14:50:10.504Z,25.09
2018-08-23T14:52:41.477Z,23.72
2018-08-23T14:55:15.813Z,24.20
2018-08-23T14:57:46.618Z,24.03
2018-08-23T15:00:17.597Z,24.38
2018-08-23T15:02:48.638Z,23.96
2018-08-23T15:05:20.415Z,24.19
2018-08-23T15:07:51.473Z,24.69
2018-08-23T15:10:22.535Z,24.86
2018-08-23T15:12:54.308Z,25.50
2018-08-23T15:15:30.479Z,24.99
2018-08-23T15:18:01.918Z,25.65
2018-08-23T15:20:32.744Z,25.53
2018-08-23T15:23:03.575Z,25.55
2018-08-23T15:25:34.515Z,25.88
2018-08-23T15:28:05.542Z,26.64
2018-08-23T15:30:36.638Z,26.62
2018-08-23T15:33:07.604Z,27.35
2018-08-23T15:35:38.598Z,27.18
2018-08-23T15:38:09.507Z,27.79
2018-08-23T15:40:40.498Z,27.08
2018-08-23T15:43:11.502Z,27.89
2018-08-23T15:45:42.541Z,27.98
2018-08-23T15:48:13.512Z,28.14
2018-08-23T15:50:44.501Z,27.19
2018-08-23T15:53:17.035Z,28.01
2018-08-23T15:55:48.440Z,27.86
2018-08-23T15:58:19.528Z,27.43
2018-08-23T16:00:50.551Z,27.95
2018-08-23T16:03:21.509Z,28.32
2018-08-23T16:05:52.487Z,27.85
2018-08-23T16:08:23.506Z,28.24
2018-08-23T16:10:54.481Z,28.70
2018-08-23T16:13:25.510Z,28.79
2018-08-23T16:16:01.646Z,27.95
2018-08-23T16:18:37.601Z,28.57
2018-08-23T16:21:08.497Z,28.91
2018-08-23T16:23:40.045Z,29.21
2018-08-23T16:26:11.339Z,28.67
2018-08-23T16:28:42.368Z,29.42
2018-08-23T16:31:13.370Z,29.19
2018-08-23T16:33:44.356Z,29.08
2018-08-23T16:36:15.620Z,30.44
2018-08-23T16:38:46.546Z,29.14
2018-08-23T16:41:17.607Z,30.27
2018-08-23T16:43:48.517Z,30.32
2018-08-23T16:46:19.489Z,30.05
2018-08-23T16:48:50.668Z,30.62
2018-08-23T16:51:21.533Z,30.03
2018-08-23T16:53:53.016Z,30.08
2018-08-23T16:56:24.240Z,29.85
2018-08-23T16:58:55.425Z,30.32
2018-08-23T17:01:26.506Z,31.11
2018-08-23T17:03:58.563Z,30.82
2018-08-23T17:06:29.841Z,30.19
2018-08-23T17:09:00.638Z,30.23
2018-08-23T17:11:31.486Z,30.65
2018-08-23T17:14:03.022Z,31.10
2018-08-23T17:16:39.401Z,31.10
2018-08-23T17:19:10.498Z,30.68
2018-08-23T17:21:41.513Z,31.34
2018-08-23T17:24:12.559Z,31.39
2018-08-23T17:26:43.485Z,31.80
2018-08-23T17:30:41.677Z,31.97
2018-08-23T17:33:12.633Z,31.66
2018-08-23T17:35:43.548Z,31.93
2018-08-23T17:38:14.624Z,31.80
2018-08-23T17:40:45.566Z,32.02
2018-08-23T17:43:16.533Z,31.63
2018-08-23T17:45:49.615Z,32.39
2018-08-23T17:51:09.378Z,32.18
2018-08-23T17:53:40.457Z,32.13
2018-08-23T17:56:11.682Z,32.47
2018-08-23T17:58:42.564Z,32.62
2018-08-23T18:01:13.554Z,33.60
2018-08-23T18:03:44.494Z,32.93
2018-08-23T18:06:15.512Z,32.68
2018-08-23T18:08:46.506Z,33.76
2018-08-23T18:11:17.501Z,32.80
2018-08-23T18:13:48.486Z,33.76
2018-08-23T18:16:25.245Z,33.87
2018-08-23T18:18:55.423Z,33.81
2018-08-23T18:21:26.441Z,34.61
2018-08-23T18:24:01.390Z,34.29
2018-08-23T18:26:32.481Z,33.84
2018-08-23T18:29:03.785Z,34.76
2018-08-23T18:31:36.421Z,35.37
2018-08-23T18:34:07.537Z,34.83
2018-08-23T18:36:38.551Z,35.13
2018-08-23T18:39:10.750Z,34.80
2018-08-23T18:41:42.198Z,34.86
2018-08-23T18:44:13.362Z,35.22
2018-08-23T18:46:44.517Z,34.63
2018-08-23T18:49:15.550Z,34.80
2018-08-23T18:51:46.517Z,35.48
2018-08-23T18:54:17.585Z,35.97
2018-08-23T18:56:48.500Z,35.48
2018-08-23T18:59:19.494Z,35.63
2018-08-23T19:01:50.516Z,35.16
2018-08-23T19:04:21.521Z,34.96
2018-08-23T19:06:52.611Z,36.11
2018-08-23T19:09:23.510Z,39.21
2018-08-23T19:11:54.549Z,39.85
2018-08-23T19:14:25.515Z,40.99
2018-08-23T19:17:01.816Z,42.18
2018-08-23T19:19:32.850Z,43.17
2018-08-23T19:22:03.680Z,45.13
2018-08-23T19:24:34.565Z,46.62
2018-08-23T19:27:05.526Z,46.44
2018-08-23T19:29:36.527Z,47.72
2018-08-23T19:32:07.554Z,49.27
2018-08-23T19:34:38.523Z,51.53
2018-08-23T19:37:09.542Z,52.23
2018-08-23T19:39:40.692Z,52.98
2018-08-23T19:42:11.703Z,54.31
2018-08-23T19:44:47.917Z,55.01
2018-08-23T19:47:24.186Z,56.51
2018-08-23T19:49:56.729Z,57.74
2018-08-23T19:52:27.610Z,57.32
2018-08-23T19:54:58.510Z,56.32
2018-08-23T19:57:29.466Z,57.76
2018-08-23T20:00:00.479Z,58.27
2018-08-23T20:02:31.510Z,56.76
2018-08-23T20:05:02.503Z,56.71
2018-08-23T20:07:33.498Z,56.67
2018-08-23T20:10:04.574Z,57.82
2018-08-23T20:12:35.541Z,58.46
2018-08-23T20:15:06.574Z,57.19
2018-08-23T20:17:38.443Z,58.26
2018-08-23T20:20:09.549Z,56.54
2018-08-23T20:22:40.588Z,56.59
2018-08-23T20:25:11.591Z,56.71
2018-08-23T20:27:42.555Z,56.60
2018-08-23T20:30:13.585Z,55.80
2018-08-23T20:32:44.519Z,56.03
2018-08-23T20:35:15.493Z,56.86
2018-08-23T20:37:46.502Z,56.78
2018-08-23T20:40:17.478Z,56.97
2018-08-23T20:42:48.548Z,57.28
2018-08-23T20:45:19.498Z,57.26
2018-08-23T20:47:50.556Z,56.84
2018-08-23T20:50:21.544Z,57.74
2018-08-23T20:52:52.583Z,58.36
2018-08-23T20:55:23.617Z,57.27
2018-08-23T20:57:54.564Z,57.90
2018-08-23T21:00:25.565Z,57.04
2018-08-23T21:02:56.686Z,57.22
2018-08-23T21:05:27.787Z,56.11
2018-08-23T21:07:59.023Z,56.54
2018-08-23T21:10:30.579Z,56.04
2018-08-23T21:13:01.670Z,56.69
2018-08-23T21:15:35.570Z,56.02
2018-08-23T21:18:09.623Z,55.60
2018-08-23T21:20:42.382Z,55.68
2018-08-23T21:23:13.493Z,56.71
2018-08-23T21:25:44.522Z,55.94
2018-08-23T21:28:15.535Z,56.86
2018-08-23T21:30:46.557Z,57.53
2018-08-23T21:33:17.866Z,56.56
2018-08-23T21:35:49.539Z,56.82
2018-08-23T21:38:20.531Z,56.75
2018-08-23T21:40:51.486Z,57.07
2018-08-23T21:43:23.204Z,56.70
2018-08-23T21:45:54.392Z,57.46
2018-08-23T21:48:25.474Z,57.49
2018-08-23T21:50:56.486Z,57.25
2018-08-23T21:53:27.461Z,57.25
2018-08-23T21:55:58.558Z,57.83
2018-08-23T21:58:29.531Z,57.30
2018-08-23T22:01:08.446Z,57.60
2018-08-23T22:03:39.782Z,56.40
2018-08-23T22:06:10.780Z,57.12
2018-08-23T22:08:41.673Z,57.44
2018-08-23T22:11:12.604Z,57.78
2018-08-23T22:13:43.666Z,57.13
2018-08-23T22:16:14.553Z,57.71
2018-08-23T22:18:45.493Z,58.48
2018-08-23T22:21:16.511Z,58.62
2018-08-23T22:23:47.483Z,58.23
2018-08-23T22:26:18.522Z,58.77
2018-08-23T22:31:34.353Z,57.85
2018-08-23T22:34:05.390Z,59.05
2018-08-23T22:36:36.381Z,59.28
2018-08-23T22:39:09.468Z,58.62
2018-08-23T22:41:40.567Z,59.11
2018-08-23T22:44:11.503Z,59.25
2018-08-23T22:46:42.489Z,58.99
2018-08-23T22:49:13.533Z,60.03
2018-08-23T22:51:44.523Z,60.02
2018-08-23T22:54:16.238Z,59.93
2018-08-23T22:56:47.453Z,60.25
2018-08-23T22:59:18.477Z,61.12
2018-08-23T23:01:49.624Z,61.76
2018-08-23T23:04:25.803Z,60.95
2018-08-23T23:06:57.434Z,61.44
2018-08-23T23:09:28.486Z,62.79
2018-08-23T23:11:59.508Z,62.81
2018-08-23T23:14:30.617Z,61.85
2018-08-23T23:19:52.513Z,62.66
2018-08-23T23:22:23.599Z,62.61
2018-08-23T23:24:59.605Z,61.56
2018-08-23T23:27:30.801Z,62.29
2018-08-23T23:30:01.717Z,62.68
2018-08-23T23:32:32.568Z,62.85
2018-08-23T23:35:03.509Z,63.43
2018-08-23T23:37:34.496Z,64.13
2018-08-23T23:40:05.452Z,63.79
2018-08-23T23:42:37.182Z,63.58
2018-08-23T23:45:09.425Z,63.51
2018-08-23T23:47:40.486Z,64.33
2018-08-23T23:50:11.492Z,63.79
2018-08-23T23:52:42.509Z,63.34
2018-08-23T23:55:13.518Z,64.22
2018-08-23T23:57:44.461Z,63.58
